SGEN/ENO METAR and TAF weather

Enter ICAO airport designator
Station Type Date Time Source
SGEN METAR 2020/09/23 19:00 UTC NOAA

SGEN 231900Z 02004KT 9999 SCT030 31/13 Q1018


Station Type Date Time Source
SGEN Decoded METAR 2020/09/23 19:00 UTC NOAA

Encarnacion, Paraguay (SGEN) 27-19S 055-50W 91M
Sep 23, 2020 - 03:00 PM EDT / 2020.09.23 1900 UTC
Wind: from the NNE (020 degrees) at 5 MPH (4 KT):0
Visibility: greater than 7 mile(s):0
Sky conditions: partly cloudy
Temperature: 87 F (31 C)
Dew Point: 55 F (13 C)
Relative Humidity: 33%
Pressure (altimeter): 30.06 in. Hg (1018 hPa)
ob: SGEN 231900Z 02004KT 9999 SCT030 31/13 Q1018
cycle: 19

Station Type Date Time Source
SGEN TAF 2020/09/23 18:00 UTC NOAA

TAF SGEN 231630Z 2318/2418 02008KT CAVOK TX32/2319Z TN16/2409Z
BECMG 2321/2400 09005KT 8000 NSC
BECMG 2409/2412 05010KT CAVOK

Example: see airport list